Time;durP1;ratioP1;P1;durP2;ratioP2;P2;SDS_P1;SDS_P2;PMS_P1;PMS_P2;Temp;Humidity;BMP_temperature;BMP_pressure;BME280_temperature;BME280_humidity;BME280_pressure;Samples;Min_cycle;Max_cycle;Signal;HPM_P1;HPM_P2
2023/09/16 00:01:14;;;;;;;5.33;3.10;;;15.50;99.90;;;;;;5246067;28;20195;-50
2023/09/16 00:03:44;;;;;;;2.43;2.30;;;15.50;99.90;;;;;;5239857;28;20301;-49
2023/09/16 00:06:15;;;;;;;6.93;2.90;;;15.50;99.90;;;;;;5242423;28;20175;-49
2023/09/16 00:08:46;;;;;;;3.73;2.53;;;15.50;99.90;;;;;;5225551;28;20259;-47
2023/09/16 00:11:16;;;;;;;9.20;3.10;;;15.40;99.90;;;;;;5222955;28;20657;-50
2023/09/16 00:13:47;;;;;;;2.73;2.53;;;15.40;99.90;;;;;;5246591;28;20209;-49
2023/09/16 00:16:17;;;;;;;3.40;2.90;;;15.40;99.90;;;;;;5243163;28;20564;-49
2023/09/16 00:18:48;;;;;;;2.30;1.60;;;15.40;99.90;;;;;;5207874;28;20218;-50
2023/09/16 00:21:19;;;;;;;2.47;2.27;;;15.40;99.90;;;;;;5241599;28;20305;-50
2023/09/16 00:23:49;;;;;;;4.50;2.57;;;15.30;99.90;;;;;;5224002;28;20194;-48
2023/09/16 00:26:20;;;;;;;3.20;2.90;;;15.30;99.90;;;;;;5227542;28;20280;-48
2023/09/16 00:28:51;;;;;;;2.90;2.57;;;15.30;99.90;;;;;;5245615;28;20197;-50
2023/09/16 00:31:21;;;;;;;4.33;2.80;;;15.30;99.90;;;;;;5225708;28;20178;-50
2023/09/16 00:33:52;;;;;;;6.07;2.50;;;15.20;99.90;;;;;;5228270;28;20530;-49
2023/09/16 00:36:23;;;;;;;2.50;2.40;;;15.20;99.90;;;;;;5228309;28;20185;-50
2023/09/16 00:38:54;;;;;;;2.70;2.40;;;15.20;99.90;;;;;;5226674;28;20193;-49
2023/09/16 00:41:25;;;;;;;7.03;2.83;;;15.20;99.90;;;;;;5230241;28;20248;-49
2023/09/16 00:43:56;;;;;;;2.37;2.20;;;15.20;99.90;;;;;;5231020;28;20452;-49
2023/09/16 00:46:27;;;;;;;6.27;3.20;;;15.20;99.90;;;;;;5230001;28;20575;-51
2023/09/16 00:48:58;;;;;;;2.13;2.00;;;15.10;99.90;;;;;;5227837;28;20307;-49
2023/09/16 00:51:30;;;;;;;2.90;2.70;;;15.10;99.90;;;;;;5212154;28;20590;-48
2023/09/16 00:54:01;;;;;;;5.23;2.70;;;15.00;99.90;;;;;;5229004;28;20464;-49
2023/09/16 00:56:32;;;;;;;4.37;2.93;;;15.00;99.90;;;;;;5245689;28;20444;-50
2023/09/16 00:59:03;;;;;;;2.90;2.70;;;15.00;99.90;;;;;;5232312;28;20487;-49
2023/09/16 01:01:37;;;;;;;3.37;3.07;;;14.90;99.90;;;;;;5249202;28;21034;-49
2023/09/16 01:04:08;;;;;;;2.60;2.40;;;14.90;99.90;;;;;;5246096;28;20190;-49
2023/09/16 01:06:43;;;;;;;3.50;2.70;;;14.90;99.90;;;;;;5244111;28;20437;-50
2023/09/16 01:09:16;;;;;;;3.63;2.30;;;14.90;99.90;;;;;;5203646;28;20421;-49
2023/09/16 01:11:47;;;;;;;9.13;2.07;;;14.90;99.90;;;;;;5249008;28;20941;-49
2023/09/16 01:14:18;;;;;;;3.00;2.43;;;14.90;99.90;;;;;;5229078;28;20463;-50
2023/09/16 01:16:57;;;;;;;8.80;2.73;;;14.90;99.90;;;;;;5214993;28;20432;-49
2023/09/16 01:19:46;;;;;;;5.37;3.30;;;14.80;99.90;;;;;;5230982;28;20281;-49
2023/09/16 01:22:17;;;;;;;4.30;2.97;;;14.80;99.90;;;;;;5244130;28;20547;-48
2023/09/16 01:24:52;;;;;;;2.87;2.30;;;14.80;99.90;;;;;;5220792;28;20476;-51
2023/09/16 01:27:22;;;;;;;2.87;2.60;;;14.80;99.90;;;;;;5248510;28;20424;-49
2023/09/16 01:29:53;;;;;;;3.00;2.43;;;14.80;99.90;;;;;;5230616;28;20935;-49
2023/09/16 01:32:34;;;;;;;3.80;2.23;;;14.80;99.90;;;;;;5248531;28;20321;-49
2023/09/16 01:35:07;;;;;;;4.33;3.10;;;14.80;99.90;;;;;;5231162;28;20182;-48
2023/09/16 01:37:40;;;;;;;2.90;2.70;;;14.70;99.90;;;;;;5213432;28;20951;-49
2023/09/16 01:40:11;;;;;;;2.60;2.40;;;14.60;99.90;;;;;;5230761;28;20523;-48
2023/09/16 01:42:42;;;;;;;3.20;2.93;;;14.60;99.90;;;;;;5246618;28;21062;-49
2023/09/16 01:45:14;;;;;;;4.27;2.53;;;14.60;99.90;;;;;;5248780;28;20429;-49
2023/09/16 01:47:46;;;;;;;6.17;2.57;;;14.60;99.90;;;;;;5238438;28;20432;-49
2023/09/16 01:50:16;;;;;;;4.20;2.70;;;14.60;99.90;;;;;;5247725;28;20429;-50
2023/09/16 01:52:47;;;;;;;4.60;3.07;;;14.60;99.90;;;;;;5246354;28;20479;-49
2023/09/16 01:55:18;;;;;;;9.10;2.47;;;14.50;99.90;;;;;;5246987;28;20189;-49
2023/09/16 01:57:48;;;;;;;4.27;2.83;;;14.50;99.90;;;;;;5242463;28;20187;-49
2023/09/16 02:00:19;;;;;;;2.90;2.57;;;14.50;99.90;;;;;;5228414;28;20205;-49
2023/09/16 02:02:50;;;;;;;3.87;2.67;;;14.50;99.90;;;;;;5238787;28;20601;-50
2023/09/16 02:05:21;;;;;;;2.10;2.00;;;14.50;99.90;;;;;;5245986;28;20174;-49
2023/09/16 02:07:52;;;;;;;3.30;3.00;;;14.50;99.90;;;;;;5223302;28;20436;-49
2023/09/16 02:10:22;;;;;;;2.83;2.67;;;14.40;99.90;;;;;;5230756;28;20174;-49
2023/09/16 02:12:53;;;;;;;2.60;2.40;;;14.40;99.90;;;;;;5210801;28;20226;-48
2023/09/16 02:15:24;;;;;;;7.93;2.63;;;14.40;99.90;;;;;;5230470;28;20634;-51
2023/09/16 02:17:54;;;;;;;7.40;3.03;;;14.40;99.90;;;;;;5245405;28;20217;-49
2023/09/16 02:20:25;;;;;;;2.70;2.50;;;14.30;99.90;;;;;;5243768;28;20296;-49
2023/09/16 02:22:55;;;;;;;6.53;2.67;;;14.40;99.90;;;;;;5221338;28;20258;-50
2023/09/16 02:25:26;;;;;;;7.73;2.53;;;14.30;99.90;;;;;;5227180;28;20182;-49
2023/09/16 02:27:57;;;;;;;3.93;2.57;;;14.30;99.90;;;;;;5227612;28;20316;-48
2023/09/16 02:30:27;;;;;;;4.63;3.13;;;14.30;99.90;;;;;;5229026;28;20201;-50
2023/09/16 02:32:58;;;;;;;2.10;2.00;;;14.30;99.90;;;;;;5218680;28;20210;-49
2023/09/16 02:35:29;;;;;;;3.07;2.87;;;14.30;99.90;;;;;;5243334;28;20178;-50
2023/09/16 02:38:02;;;;;;;2.67;2.47;;;14.30;99.90;;;;;;5226347;28;20182;-49
2023/09/16 02:40:32;;;;;;;3.40;2.70;;;14.20;99.90;;;;;;5221392;28;20209;-48
2023/09/16 02:43:03;;;;;;;2.33;2.13;;;14.20;99.90;;;;;;5221453;28;20457;-50
2023/09/16 02:45:41;;;;;;;3.80;2.73;;;14.20;99.90;;;;;;5245438;28;20196;-50
2023/09/16 02:48:17;;;;;;;15.33;2.43;;;14.10;99.90;;;;;;5243321;28;20685;-49
2023/09/16 02:50:48;;;;;;;9.40;2.70;;;14.10;99.90;;;;;;5232516;28;20497;-49
2023/09/16 02:53:18;;;;;;;2.37;2.27;;;14.10;99.90;;;;;;5228762;28;20878;-50
2023/09/16 02:55:49;;;;;;;2.83;2.70;;;14.10;99.90;;;;;;5227664;28;20266;-50
2023/09/16 02:58:19;;;;;;;3.03;2.80;;;14.00;99.90;;;;;;5246137;28;20178;-50
2023/09/16 03:00:50;;;;;;;2.40;2.23;;;14.00;99.90;;;;;;5248413;28;20214;-49
2023/09/16 03:03:21;;;;;;;5.37;3.37;;;14.00;99.90;;;;;;5226231;28;20251;-54
2023/09/16 03:05:51;;;;;;;3.20;2.90;;;14.00;99.90;;;;;;5245786;28;20189;-50
2023/09/16 03:08:22;;;;;;;5.97;2.80;;;13.90;99.90;;;;;;5224656;28;20179;-50
2023/09/16 03:10:59;;;;;;;3.70;2.83;;;13.90;99.90;;;;;;5239692;28;20590;-50
2023/09/16 03:13:30;;;;;;;4.83;2.70;;;13.90;99.90;;;;;;5244211;28;20289;-49
2023/09/16 03:16:21;;;;;;;4.63;2.33;;;13.90;99.90;;;;;;5239131;28;20525;-49
2023/09/16 03:18:53;;;;;;;2.33;2.10;;;13.90;99.90;;;;;;5213419;28;20178;-48
2023/09/16 03:21:24;;;;;;;4.60;2.60;;;13.90;99.90;;;;;;5241042;28;20461;-48
2023/09/16 03:23:55;;;;;;;8.20;3.37;;;13.80;99.90;;;;;;5245009;28;20452;-49
2023/09/16 03:26:26;;;;;;;4.20;2.33;;;13.80;99.90;;;;;;5230491;28;20490;-48
2023/09/16 03:28:57;;;;;;;8.30;2.87;;;13.80;99.90;;;;;;5230516;28;20263;-48
2023/09/16 03:31:27;;;;;;;2.20;2.00;;;13.80;99.90;;;;;;5246381;28;20204;-48
2023/09/16 03:33:58;;;;;;;4.47;2.30;;;13.70;99.90;;;;;;5224552;28;20964;-49
2023/09/16 03:36:28;;;;;;;4.60;2.70;;;13.70;99.90;;;;;;5227367;28;20194;-49
2023/09/16 03:38:59;;;;;;;4.60;2.63;;;13.70;99.90;;;;;;5244455;28;20194;-49
2023/09/16 03:41:30;;;;;;;3.17;2.80;;;13.70;99.90;;;;;;5224200;28;20221;-50
2023/09/16 03:44:00;;;;;;;4.37;2.23;;;13.70;99.90;;;;;;5228248;28;20288;-48
2023/09/16 03:46:32;;;;;;;4.40;3.07;;;13.60;99.90;;;;;;5242366;28;20181;-49
2023/09/16 03:49:02;;;;;;;2.33;2.13;;;13.60;99.90;;;;;;5244645;28;21246;-49
2023/09/16 03:51:34;;;;;;;5.90;2.60;;;13.60;99.90;;;;;;5246732;28;20799;-50
2023/09/16 03:54:06;;;;;;;8.23;3.07;;;13.60;99.90;;;;;;5217147;28;20677;-49
2023/09/16 03:56:37;;;;;;;5.10;2.60;;;13.50;99.90;;;;;;5229889;28;20512;-47
2023/09/16 03:59:07;;;;;;;5.30;3.30;;;13.50;99.90;;;;;;5248002;28;20921;-49
2023/09/16 04:01:38;;;;;;;4.10;2.57;;;13.40;99.90;;;;;;5230111;28;20210;-49
2023/09/16 04:04:09;;;;;;;4.23;3.23;;;13.40;99.90;;;;;;5246124;28;20202;-49
2023/09/16 04:06:39;;;;;;;3.37;3.07;;;13.40;99.90;;;;;;5247485;28;20593;-49
2023/09/16 04:09:10;;;;;;;4.80;2.80;;;13.40;99.90;;;;;;5235048;28;20269;-49
2023/09/16 04:11:40;;;;;;;4.27;2.77;;;13.40;99.90;;;;;;5226282;28;20191;-49
2023/09/16 04:14:11;;;;;;;12.60;3.47;;;13.40;99.90;;;;;;5248389;28;20661;-49
2023/09/16 04:16:43;;;;;;;7.10;3.10;;;13.30;99.90;;;;;;5237684;28;20181;-50
2023/09/16 04:19:14;;;;;;;7.83;3.10;;;13.30;99.90;;;;;;5243946;28;20239;-49
2023/09/16 04:21:46;;;;;;;3.57;3.07;;;13.30;99.90;;;;;;5246623;28;20563;-49
2023/09/16 04:24:19;;;;;;;3.40;2.40;;;13.30;99.90;;;;;;5227970;28;20666;-48
2023/09/16 04:26:49;;;;;;;3.13;2.70;;;13.30;99.90;;;;;;5212519;28;20436;-50
2023/09/16 04:29:20;;;;;;;4.00;2.83;;;13.30;99.90;;;;;;5230339;28;20523;-49
2023/09/16 04:31:51;;;;;;;5.87;3.10;;;13.20;99.90;;;;;;5222668;28;20190;-48
2023/09/16 04:34:22;;;;;;;4.70;3.30;;;13.20;99.90;;;;;;5207033;28;20261;-49
2023/09/16 04:36:54;;;;;;;3.37;3.07;;;13.20;99.90;;;;;;5211677;28;20528;-50
2023/09/16 04:39:26;;;;;;;7.00;2.93;;;13.20;99.90;;;;;;5228280;28;20189;-50
2023/09/16 04:41:57;;;;;;;12.30;3.23;;;13.20;99.90;;;;;;5224783;28;20529;-49
2023/09/16 04:44:29;;;;;;;6.90;3.30;;;13.20;99.90;;;;;;5228269;28;20440;-49
2023/09/16 04:47:03;;;;;;;8.53;3.30;;;13.20;99.90;;;;;;5241952;28;20178;-49
2023/09/16 04:49:33;;;;;;;6.07;2.40;;;13.10;99.90;;;;;;5222715;28;20438;-48
2023/09/16 04:52:04;;;;;;;7.43;3.10;;;13.20;99.90;;;;;;5246911;28;20478;-48
2023/09/16 04:54:35;;;;;;;5.33;3.07;;;13.20;99.90;;;;;;5235275;23;20642;-47
2023/09/16 04:57:06;;;;;;;12.53;4.07;;;13.20;99.90;;;;;;5244554;28;20431;-47
2023/09/16 04:59:37;;;;;;;6.63;2.87;;;13.20;99.90;;;;;;5248924;28;20185;-46
2023/09/16 05:02:08;;;;;;;9.63;3.60;;;13.20;99.90;;;;;;5255022;28;20197;-47
2023/09/16 05:04:39;;;;;;;3.40;2.93;;;13.30;99.90;;;;;;5243604;28;20444;-47
2023/09/16 05:07:10;;;;;;;8.50;2.80;;;13.30;99.90;;;;;;5265173;28;20408;-45
2023/09/16 05:09:40;;;;;;;5.80;2.67;;;13.30;99.90;;;;;;5254876;28;20174;-48
2023/09/16 05:12:11;;;;;;;4.63;3.67;;;13.30;99.90;;;;;;5251600;28;20228;-46
2023/09/16 05:14:42;;;;;;;6.10;3.90;;;13.40;99.90;;;;;;5248677;28;20285;-46
2023/09/16 05:17:12;;;;;;;5.87;3.00;;;13.40;99.90;;;;;;5267180;28;20188;-46
2023/09/16 05:19:43;;;;;;;4.47;3.40;;;13.40;99.90;;;;;;5268436;28;20177;-46
2023/09/16 05:22:14;;;;;;;7.10;2.70;;;13.50;99.90;;;;;;5231646;28;20773;-46
2023/09/16 05:24:44;;;;;;;6.93;3.90;;;13.50;99.90;;;;;;5269439;28;20280;-48
2023/09/16 05:27:15;;;;;;;16.20;4.30;;;13.60;99.90;;;;;;5252631;28;20181;-47
2023/09/16 05:29:49;;;;;;;10.53;3.97;;;13.60;99.90;;;;;;5268039;28;20538;-48
2023/09/16 05:32:20;;;;;;;3.40;3.10;;;13.70;99.90;;;;;;5267896;28;20177;-48
2023/09/16 05:34:51;;;;;;;5.40;3.30;;;13.70;99.90;;;;;;5263453;28;20523;-47
2023/09/16 05:37:21;;;;;;;4.77;3.57;;;13.80;99.90;;;;;;5249746;28;20444;-48
2023/09/16 05:39:52;;;;;;;5.17;3.03;;;13.80;99.90;;;;;;5269407;28;20182;-47
2023/09/16 05:42:23;;;;;;;4.80;3.27;;;13.90;99.90;;;;;;5266782;28;20198;-46
2023/09/16 05:44:54;;;;;;;9.03;3.47;;;13.90;99.90;;;;;;5270234;28;20181;-47
2023/09/16 05:47:24;;;;;;;6.67;3.40;;;13.80;99.90;;;;;;5270074;28;20184;-46
2023/09/16 05:49:55;;;;;;;9.77;3.87;;;14.00;99.90;;;;;;5263511;28;20654;-47
2023/09/16 05:52:27;;;;;;;3.90;3.03;;;14.10;99.90;;;;;;5268576;28;20681;-47
2023/09/16 05:54:58;;;;;;;5.17;3.80;;;14.20;99.90;;;;;;5271486;28;20431;-48
2023/09/16 05:57:28;;;;;;;4.07;3.70;;;14.30;99.90;;;;;;5270889;28;20189;-46
2023/09/16 05:59:59;;;;;;;8.70;3.80;;;15.20;99.90;;;;;;5270669;28;20690;-46
2023/09/16 06:02:30;;;;;;;7.27;3.73;;;17.30;99.90;;;;;;5252570;28;20255;-47
2023/09/16 06:05:00;;;;;;;5.20;3.20;;;19.00;98.90;;;;;;5265798;28;20182;-47
2023/09/16 06:07:31;;;;;;;3.70;3.20;;;20.20;94.00;;;;;;5269957;28;20596;-47
2023/09/16 06:10:02;;;;;;;3.90;3.30;;;21.00;90.50;;;;;;5272376;28;20611;-49
2023/09/16 06:12:33;;;;;;;5.50;3.97;;;21.40;84.10;;;;;;5270248;28;20193;-48
2023/09/16 06:15:04;;;;;;;3.60;3.20;;;21.40;79.40;;;;;;5253670;28;20185;-47
2023/09/16 06:17:35;;;;;;;5.80;3.33;;;20.70;79.80;;;;;;5270302;28;20522;-48
2023/09/16 06:20:06;;;;;;;4.00;3.17;;;21.00;80.40;;;;;;5252909;28;20527;-48
2023/09/16 06:22:37;;;;;;;6.40;3.67;;;21.90;77.00;;;;;;5252860;28;20248;-48
2023/09/16 06:25:08;;;;;;;9.10;2.90;;;22.90;71.30;;;;;;5269176;28;20416;-48
2023/09/16 06:27:38;;;;;;;4.13;3.67;;;22.80;68.50;;;;;;5269173;28;20652;-47
2023/09/16 06:30:10;;;;;;;4.40;3.30;;;22.70;69.00;;;;;;5271024;28;20534;-47
2023/09/16 06:32:40;;;;;;;8.47;3.40;;;22.90;66.40;;;;;;5253795;28;20193;-47
2023/09/16 06:35:11;;;;;;;4.30;3.20;;;23.50;65.50;;;;;;5271366;28;20443;-47
2023/09/16 06:37:42;;;;;;;4.80;2.80;;;24.50;62.50;;;;;;5271289;28;20224;-48
2023/09/16 06:40:12;;;;;;;6.83;3.30;;;24.90;59.10;;;;;;5254932;28;20192;-48
2023/09/16 06:42:44;;;;;;;3.43;3.13;;;24.90;58.90;;;;;;5269404;28;20233;-49
2023/09/16 06:45:14;;;;;;;4.00;3.00;;;25.90;55.90;;;;;;5268335;28;20186;-48
2023/09/16 06:47:45;;;;;;;10.57;3.60;;;26.00;54.20;;;;;;5254220;28;20432;-48
2023/09/16 06:50:16;;;;;;;8.17;3.20;;;25.60;53.40;;;;;;5269492;28;20217;-49
2023/09/16 06:52:46;;;;;;;4.50;3.57;;;25.20;54.80;;;;;;5252968;28;20227;-48
2023/09/16 06:55:17;;;;;;;3.03;2.73;;;25.60;53.30;;;;;;5251246;28;20188;-46
2023/09/16 06:57:48;;;;;;;6.10;3.10;;;24.90;54.10;;;;;;5253716;28;20182;-47
2023/09/16 07:00:19;;;;;;;3.47;3.23;;;24.40;55.40;;;;;;5252386;28;20189;-48
2023/09/16 07:02:50;;;;;;;5.13;3.57;;;24.90;55.20;;;;;;5266886;28;20594;-47
2023/09/16 07:05:20;;;;;;;6.70;3.53;;;25.40;53.60;;;;;;5252139;28;20626;-48
2023/09/16 07:07:54;;;;;;;3.53;3.03;;;25.70;53.40;;;;;;5250092;28;20766;-49
2023/09/16 07:10:25;;;;;;;4.50;3.40;;;26.50;51.30;;;;;;5270675;28;20254;-48
2023/09/16 07:12:55;;;;;;;6.97;2.80;;;26.50;51.00;;;;;;5271240;28;20519;-48
2023/09/16 07:15:26;;;;;;;4.20;3.17;;;25.80;51.60;;;;;;5251992;28;20526;-48
2023/09/16 07:17:57;;;;;;;4.00;3.60;;;25.30;52.70;;;;;;5266140;28;20207;-47
2023/09/16 07:20:28;;;;;;;3.50;3.10;;;24.50;53.70;;;;;;5234057;28;20213;-48
2023/09/16 07:22:58;;;;;;;8.10;3.30;;;23.80;55.30;;;;;;5248596;28;20206;-49
2023/09/16 07:25:29;;;;;;;7.93;3.50;;;23.90;56.20;;;;;;5267323;28;20174;-48
2023/09/16 07:28:02;;;;;;;3.80;3.50;;;24.80;54.80;;;;;;5249345;28;20178;-49
2023/09/16 07:30:34;;;;;;;3.40;3.20;;;25.80;53.00;;;;;;5246604;28;20271;-48
2023/09/16 07:33:05;;;;;;;3.20;2.90;;;26.70;51.20;;;;;;5251299;28;20467;-48
2023/09/16 07:35:35;;;;;;;3.53;3.23;;;27.30;49.80;;;;;;5264725;28;20433;-48
2023/09/16 07:38:08;;;;;;;3.77;3.20;;;27.50;49.40;;;;;;5249801;28;20325;-47
2023/09/16 07:40:39;;;;;;;4.30;3.07;;;27.80;48.70;;;;;;5268383;28;20279;-48
2023/09/16 07:43:11;;;;;;;2.83;2.63;;;27.80;47.50;;;;;;5251155;28;20463;-48
2023/09/16 07:45:42;;;;;;;3.23;2.70;;;27.80;48.30;;;;;;5265099;28;20170;-48
2023/09/16 07:48:14;;;;;;;4.63;2.40;;;28.20;47.70;;;;;;5250130;28;20428;-49
2023/09/16 07:50:45;;;;;;;3.17;2.97;;;28.30;47.20;;;;;;5248180;28;20825;-49
2023/09/16 07:53:16;;;;;;;2.97;2.70;;;28.20;47.40;;;;;;5247826;28;20467;-49
2023/09/16 07:55:47;;;;;;;8.07;3.10;;;28.50;46.80;;;;;;5247998;28;20436;-48
2023/09/16 07:58:18;;;;;;;3.67;2.60;;;28.90;46.70;;;;;;5269262;28;20170;-49
2023/09/16 08:00:49;;;;;;;3.90;3.10;;;28.70;46.60;;;;;;5249890;28;20589;-49
2023/09/16 08:03:20;;;;;;;3.47;2.90;;;27.80;47.60;;;;;;5249725;28;20250;-50
2023/09/16 08:05:50;;;;;;;5.07;3.13;;;26.50;50.00;;;;;;5265716;28;20428;-48
2023/09/16 08:08:21;;;;;;;2.80;2.60;;;25.30;52.40;;;;;;5266209;28;20174;-49
2023/09/16 08:10:52;;;;;;;6.40;3.10;;;24.40;54.50;;;;;;5245220;28;20174;-48
2023/09/16 08:13:22;;;;;;;3.47;3.20;;;23.40;55.80;;;;;;5268445;28;20198;-50
2023/09/16 08:15:55;;;;;;;3.13;2.83;;;22.90;58.10;;;;;;5249852;28;20638;-48
2023/09/16 08:18:25;;;;;;;5.00;2.90;;;22.30;58.80;;;;;;5265023;28;20235;-47
2023/09/16 08:20:56;;;;;;;5.73;3.50;;;21.80;60.50;;;;;;5267380;28;20803;-48
2023/09/16 08:23:27;;;;;;;3.20;2.90;;;21.60;62.90;;;;;;5248005;28;20232;-48
2023/09/16 08:25:57;;;;;;;7.67;3.20;;;21.50;61.80;;;;;;5248117;28;20188;-48
2023/09/16 08:28:28;;;;;;;4.90;2.97;;;21.20;62.40;;;;;;5250862;28;20203;-49
2023/09/16 08:30:59;;;;;;;4.40;3.10;;;20.80;64.00;;;;;;5269780;28;20196;-47
2023/09/16 08:33:30;;;;;;;5.20;3.13;;;20.30;65.60;;;;;;5267697;28;20459;-47
2023/09/16 08:36:00;;;;;;;3.27;2.97;;;20.20;66.80;;;;;;5270313;28;20174;-48
2023/09/16 08:38:31;;;;;;;3.87;3.20;;;20.20;67.90;;;;;;5249842;28;20186;-47
2023/09/16 08:41:30;;;;;;;3.00;2.80;;;20.20;68.10;;;;;;5249689;28;20183;-49
2023/09/16 08:44:09;;;;;;;3.63;3.20;;;20.50;68.80;;;;;;5198225;28;20300;-47
2023/09/16 08:46:45;;;;;;;2.70;2.57;;;20.60;67.70;;;;;;5267641;28;20785;-49
2023/09/16 08:49:19;;;;;;;4.00;3.20;;;20.60;68.20;;;;;;5251510;28;20422;-49
2023/09/16 08:51:55;;;;;;;3.53;2.80;;;20.50;68.60;;;;;;5268433;28;20438;-49
2023/09/16 08:54:29;;;;;;;3.50;3.20;;;20.40;69.60;;;;;;5268573;28;20475;-47
2023/09/16 08:57:01;;;;;;;13.73;3.70;;;20.40;70.30;;;;;;5266677;28;20558;-48
2023/09/16 08:59:36;;;;;;;2.90;2.60;;;20.40;70.30;;;;;;5245724;28;20958;-48
2023/09/16 09:02:08;;;;;;;9.73;3.10;;;20.20;71.00;;;;;;5239417;28;20493;-48
2023/09/16 09:04:41;;;;;;;9.63;3.00;;;20.20;71.90;;;;;;5268292;28;20483;-47
2023/09/16 09:07:13;;;;;;;5.73;3.57;;;20.20;72.10;;;;;;5251148;28;20776;-48
2023/09/16 09:09:44;;;;;;;5.67;3.63;;;20.50;72.00;;;;;;5252506;28;20930;-48
2023/09/16 09:12:15;;;;;;;3.30;2.87;;;20.60;71.90;;;;;;5267293;28;20552;-48
2023/09/16 09:14:47;;;;;;;5.13;3.20;;;21.00;71.40;;;;;;5266357;28;20636;-47
2023/09/16 09:17:18;;;;;;;3.10;2.80;;;20.70;72.00;;;;;;5264951;28;20184;-48
2023/09/16 09:19:50;;;;;;;4.50;3.20;;;20.90;72.20;;;;;;5250113;28;20840;-48
2023/09/16 09:22:20;;;;;;;5.60;2.67;;;21.00;72.10;;;;;;5266991;28;20487;-48
2023/09/16 09:24:51;;;;;;;8.53;3.83;;;21.00;71.90;;;;;;5270221;28;20474;-49
2023/09/16 09:27:26;;;;;;;3.17;2.80;;;21.00;71.90;;;;;;5271395;28;20526;-48
2023/09/16 09:29:57;;;;;;;3.23;2.70;;;21.10;72.20;;;;;;5252149;28;20434;-49
2023/09/16 09:32:33;;;;;;;3.77;2.53;;;21.00;72.00;;;;;;5252684;28;20447;-48
2023/09/16 09:35:05;;;;;;;6.90;3.00;;;21.10;73.60;;;;;;5253121;28;20248;-49
2023/09/16 09:37:37;;;;;;;13.53;3.30;;;21.10;72.50;;;;;;5272995;28;20910;-48
2023/09/16 09:40:15;;;;;;;3.70;3.40;;;21.20;72.20;;;;;;5272989;28;20462;-49
2023/09/16 09:42:48;;;;;;;3.70;3.43;;;21.30;72.30;;;;;;5270875;28;20463;-51
2023/09/16 09:45:25;;;;;;;3.60;2.87;;;21.40;71.50;;;;;;5235898;28;20431;-50
2023/09/16 09:47:56;;;;;;;5.63;3.33;;;21.10;71.90;;;;;;5251524;28;20435;-48
2023/09/16 09:50:33;;;;;;;2.90;2.67;;;20.90;72.50;;;;;;5272016;28;20932;-48
2023/09/16 09:53:07;;;;;;;2.37;2.17;;;20.80;72.90;;;;;;5249951;28;20212;-48
2023/09/16 09:55:39;;;;;;;2.80;2.60;;;20.90;73.50;;;;;;5254215;28;20434;-49
2023/09/16 09:58:10;;;;;;;3.90;2.90;;;21.20;73.50;;;;;;5267515;28;20470;-49
2023/09/16 10:00:48;;;;;;;4.87;3.30;;;21.50;72.30;;;;;;5253607;28;20465;-49
2023/09/16 10:03:21;;;;;;;2.90;2.60;;;21.80;71.80;;;;;;5252540;28;20325;-50
2023/09/16 10:05:52;;;;;;;4.80;3.10;;;21.90;71.10;;;;;;5259116;28;20494;-49
2023/09/16 10:08:23;;;;;;;6.20;3.30;;;22.00;70.80;;;;;;5252997;28;20443;-48
2023/09/16 10:10:54;;;;;;;3.27;2.73;;;22.00;70.40;;;;;;5264330;28;20185;-49
2023/09/16 10:13:25;;;;;;;2.83;2.67;;;22.20;72.60;;;;;;5271443;28;20440;-49
2023/09/16 10:16:00;;;;;;;3.30;3.00;;;22.30;69.40;;;;;;5271065;28;20462;-49
2023/09/16 10:18:31;;;;;;;3.80;3.40;;;22.60;69.30;;;;;;5267241;28;20180;-49
2023/09/16 10:21:01;;;;;;;3.70;3.13;;;22.80;69.80;;;;;;5264238;28;20912;-49
2023/09/16 10:23:32;;;;;;;3.40;3.10;;;22.70;69.70;;;;;;5240632;28;20657;-51
2023/09/16 10:26:03;;;;;;;2.97;2.67;;;22.40;70.10;;;;;;5245144;28;20189;-50
2023/09/16 10:28:43;;;;;;;4.13;3.50;;;22.20;70.40;;;;;;5263091;28;20186;-50
2023/09/16 10:31:16;;;;;;;2.80;2.57;;;22.20;70.10;;;;;;5259812;28;20439;-51
2023/09/16 10:33:47;;;;;;;3.23;2.93;;;22.30;70.60;;;;;;5225594;28;20528;-49
2023/09/16 10:36:24;;;;;;;3.10;2.90;;;22.50;71.00;;;;;;5226838;28;20439;-51
2023/09/16 10:38:56;;;;;;;5.20;3.27;;;22.70;69.80;;;;;;5246050;28;20576;-49
2023/09/16 10:41:29;;;;;;;3.97;2.80;;;22.70;69.40;;;;;;5242932;28;20905;-48
2023/09/16 10:44:02;;;;;;;3.10;2.90;;;22.80;70.10;;;;;;5244056;28;20447;-49
2023/09/16 10:46:35;;;;;;;3.10;2.90;;;22.80;70.50;;;;;;5243196;28;20505;-49
2023/09/16 10:49:05;;;;;;;3.23;3.03;;;22.80;69.30;;;;;;5262453;28;20448;-52
2023/09/16 10:51:40;;;;;;;4.73;2.40;;;22.70;71.10;;;;;;5252909;28;20508;-48
2023/09/16 10:54:24;;;;;;;5.27;2.90;;;22.90;70.40;;;;;;5236100;23;20227;-55
2023/09/16 10:56:58;;;;;;;4.83;2.70;;;23.10;69.80;;;;;;5193469;28;20450;-54
2023/09/16 10:59:31;;;;;;;2.77;2.57;;;23.10;68.70;;;;;;5189985;28;20429;-54
2023/09/16 11:02:14;;;;;;;3.63;2.77;;;23.00;69.00;;;;;;5212169;28;20467;-53
2023/09/16 11:04:45;;;;;;;12.23;3.30;;;22.90;69.50;;;;;;5203605;28;20481;-55
2023/09/16 11:07:16;;;;;;;6.33;3.00;;;23.20;70.00;;;;;;5204844;28;20451;-55
2023/09/16 11:09:48;;;;;;;3.13;2.93;;;23.40;70.10;;;;;;5200662;28;20437;-52
2023/09/16 11:12:20;;;;;;;3.47;2.43;;;23.40;69.70;;;;;;5199522;28;20443;-54
2023/09/16 11:14:51;;;;;;;3.10;2.90;;;23.50;69.90;;;;;;5189086;28;20462;-54
2023/09/16 11:17:22;;;;;;;3.37;2.70;;;23.40;69.20;;;;;;5199256;28;20988;-53
2023/09/16 11:19:53;;;;;;;3.07;2.87;;;23.40;69.10;;;;;;5195504;28;20266;-54
2023/09/16 11:22:24;;;;;;;3.73;3.00;;;23.40;69.00;;;;;;5197388;28;20474;-55
2023/09/16 11:24:55;;;;;;;3.03;2.83;;;23.40;68.40;;;;;;5196861;28;20500;-52
2023/09/16 11:27:25;;;;;;;5.50;3.23;;;23.20;69.40;;;;;;5182544;28;20438;-54
2023/09/16 11:29:56;;;;;;;3.30;2.97;;;23.20;69.60;;;;;;5197814;28;20188;-53
2023/09/16 11:32:27;;;;;;;9.63;3.20;;;23.20;69.60;;;;;;5195804;28;20180;-55
2023/09/16 11:35:03;;;;;;;3.83;3.10;;;23.20;69.30;;;;;;5197678;28;20253;-52
2023/09/16 11:37:34;;;;;;;3.83;3.37;;;23.40;69.40;;;;;;5183878;28;20249;-44
2023/09/16 11:40:08;;;;;;;3.67;3.37;;;23.40;69.70;;;;;;5183171;28;20443;-44
2023/09/16 11:42:39;;;;;;;3.33;3.03;;;23.60;69.10;;;;;;5199701;28;20269;-44
2023/09/16 11:45:11;;;;;;;6.10;3.13;;;23.60;68.90;;;;;;5197676;28;20463;-41
2023/09/16 11:47:42;;;;;;;4.50;3.07;;;23.70;69.00;;;;;;5199420;28;20180;-43
2023/09/16 11:50:24;;;;;;;2.87;2.67;;;23.80;68.50;;;;;;5182333;28;20853;-41
2023/09/16 11:52:54;;;;;;;3.53;3.13;;;23.70;68.70;;;;;;5201693;28;20239;-42
2023/09/16 11:55:27;;;;;;;10.33;3.03;;;23.70;68.50;;;;;;5199689;28;20445;-42
2023/09/16 11:57:57;;;;;;;7.60;3.00;;;23.80;68.40;;;;;;5222243;28;20198;-43
2023/09/16 12:00:29;;;;;;;3.70;3.33;;;23.70;68.30;;;;;;5218732;28;20504;-42
2023/09/16 12:03:00;;;;;;;3.57;3.27;;;23.70;68.60;;;;;;5220245;28;20559;-41
2023/09/16 12:05:31;;;;;;;4.53;2.77;;;23.70;68.50;;;;;;5220563;28;20480;-41
2023/09/16 12:08:04;;;;;;;2.33;2.23;;;23.60;68.30;;;;;;5217644;28;20537;-42
2023/09/16 12:10:36;;;;;;;4.83;3.43;;;23.70;68.90;;;;;;5230514;28;20186;-45
2023/09/16 12:13:07;;;;;;;2.93;2.73;;;23.70;68.90;;;;;;5212049;28;20455;-45
2023/09/16 12:15:37;;;;;;;2.70;2.60;;;23.90;68.70;;;;;;5226093;28;20412;-44
2023/09/16 12:18:10;;;;;;;3.40;3.20;;;24.00;68.30;;;;;;5227137;28;20616;-44
2023/09/16 12:20:40;;;;;;;3.30;3.10;;;24.00;67.50;;;;;;5212320;28;20202;-45
2023/09/16 12:23:11;;;;;;;9.70;2.90;;;23.90;68.10;;;;;;5227495;28;20469;-44
2023/09/16 12:25:43;;;;;;;3.90;3.07;;;23.90;67.90;;;;;;5231837;28;20201;-43
2023/09/16 12:28:20;;;;;;;7.60;3.03;;;24.00;68.60;;;;;;5210175;28;20179;-43
2023/09/16 12:30:55;;;;;;;4.63;3.00;;;24.00;68.10;;;;;;5212641;28;20460;-44
2023/09/16 12:33:44;;;;;;;3.50;3.20;;;24.10;68.20;;;;;;5232306;28;20506;-42
2023/09/16 12:36:23;;;;;;;3.40;3.10;;;24.00;68.00;;;;;;5179726;28;20452;-41
2023/09/16 12:39:00;;;;;;;3.10;2.80;;;24.10;67.80;;;;;;5219606;28;20524;-42
2023/09/16 12:41:31;;;;;;;3.13;2.50;;;24.30;68.30;;;;;;5200814;28;20472;-43
2023/09/16 12:44:02;;;;;;;3.80;2.77;;;24.30;68.10;;;;;;5198082;28;21023;-43
2023/09/16 12:46:33;;;;;;;5.53;3.30;;;24.30;67.60;;;;;;5220445;28;20452;-42
2023/09/16 12:49:04;;;;;;;3.13;2.80;;;24.20;67.30;;;;;;5199111;28;20658;-43
2023/09/16 12:51:35;;;;;;;2.87;2.67;;;24.10;67.30;;;;;;5201760;28;20193;-44
2023/09/16 12:54:06;;;;;;;3.77;3.40;;;24.10;67.50;;;;;;5220030;28;20272;-43
2023/09/16 12:56:43;;;;;;;2.90;2.60;;;24.10;67.90;;;;;;5223985;28;20555;-43
2023/09/16 12:59:14;;;;;;;3.93;2.70;;;24.10;68.00;;;;;;5223694;28;20430;-43
2023/09/16 13:01:45;;;;;;;2.83;2.73;;;24.10;67.70;;;;;;5208266;28;20528;-44
2023/09/16 13:04:16;;;;;;;3.63;2.70;;;24.20;68.20;;;;;;5224905;28;20532;-43
2023/09/16 13:06:46;;;;;;;2.83;2.70;;;24.20;67.90;;;;;;5228911;28;20179;-42
2023/09/16 13:09:17;;;;;;;3.00;2.90;;;24.20;68.20;;;;;;5219943;28;20206;-43